createdAt,value
2023-05-14T00:03:08.303Z,94.1285
2023-05-14T00:04:08.926Z,95.3044
2023-05-14T00:07:11.448Z,96.1230
2023-05-14T00:09:13.971Z,94.9029
2023-05-14T00:37:10.149Z,96.5396
2023-05-14T00:38:11.620Z,96.2927
2023-05-14T00:39:11.958Z,96.0796
2023-05-14T00:59:32.952Z,96.1061
2023-05-14T01:00:33.604Z,95.9331
2023-05-14T01:02:34.985Z,95.7004
2023-05-14T01:03:35.893Z,95.8260
2023-05-14T01:04:36.143Z,95.9834
2023-05-14T01:05:36.413Z,96.0984
2023-05-14T01:06:36.644Z,95.8163
2023-05-14T01:07:40.198Z,95.9167
2023-05-14T01:08:41.348Z,95.8403
2023-05-14T01:09:42.072Z,95.9539
2023-05-14T01:10:42.358Z,95.6576
2023-05-14T01:11:43.034Z,95.4400
2023-05-14T01:12:43.331Z,95.9088
2023-05-14T01:13:43.646Z,95.9066
2023-05-14T01:14:44.882Z,96.3171
2023-05-14T01:15:45.483Z,96.5851
2023-05-14T01:16:47.508Z,96.3143
2023-05-14T01:18:49.130Z,96.1517
2023-05-14T01:19:49.314Z,95.1782
2023-05-14T01:21:52.849Z,95.1416
2023-05-14T01:22:55.019Z,95.3166
2023-05-14T01:23:56.552Z,95.1846
2023-05-14T01:24:59.011Z,95.2100
2023-05-14T01:25:59.420Z,95.4162
2023-05-14T01:27:00.717Z,95.4660
2023-05-14T01:28:02.615Z,95.7304
2023-05-14T01:29:02.673Z,95.8532
2023-05-14T01:30:03.917Z,96.2051
2023-05-14T01:31:05.867Z,96.1819
2023-05-14T01:32:07.178Z,96.0430
2023-05-14T01:33:07.557Z,96.0311
2023-05-14T01:34:08.029Z,95.3376
2023-05-14T01:35:09.762Z,95.0101
2023-05-14T01:36:10.317Z,95.0508
2023-05-14T01:38:11.576Z,95.3801
2023-05-14T01:53:24.716Z,96.0580
2023-05-14T01:54:25.202Z,96.3165
2023-05-14T01:55:26.652Z,96.2898
2023-05-14T01:56:28.669Z,96.3602
2023-05-14T01:57:28.901Z,96.1528
2023-05-14T01:58:30.298Z,96.0105
2023-05-14T01:59:30.587Z,96.2629
2023-05-14T02:01:34.669Z,96.6041
2023-05-14T02:02:35.483Z,96.8154
2023-05-14T02:03:35.492Z,96.7806
2023-05-14T02:04:36.526Z,95.9089
2023-05-14T02:13:42.292Z,96.3467
2023-05-14T02:15:44.486Z,96.7352
2023-05-14T02:16:45.313Z,96.5965
2023-05-14T02:17:45.505Z,96.5457
2023-05-14T02:18:47.794Z,96.7277
2023-05-14T02:33:01.553Z,96.3816
2023-05-14T02:39:07.661Z,96.6046
2023-05-14T02:40:09.483Z,96.6673
2023-05-14T02:41:10.541Z,96.9342
2023-05-14T02:43:13.701Z,97.4722
2023-05-14T02:44:14.373Z,97.6445
2023-05-14T02:47:19.987Z,97.9087
2023-05-14T02:48:20.564Z,97.9301
2023-05-14T02:49:20.850Z,97.9080
2023-05-14T02:50:24.196Z,97.8207
2023-05-14T02:51:25.505Z,97.9537
2023-05-14T02:52:26.373Z,97.9835
2023-05-14T02:54:28.406Z,97.9491
2023-05-14T02:55:30.298Z,97.4078
2023-05-14T02:56:32.357Z,97.6421
2023-05-14T02:57:32.843Z,97.7450
2023-05-14T02:58:35.017Z,97.7587
2023-05-14T02:59:35.391Z,97.7893
2023-05-14T03:00:37.169Z,97.8142
2023-05-14T03:04:40.212Z,98.0638
2023-05-14T03:05:41.513Z,98.1929
2023-05-14T03:11:46.912Z,97.8502
2023-05-14T03:18:56.226Z,98.1554
2023-05-14T03:19:56.357Z,98.2253
2023-05-14T03:20:57.555Z,97.9747
2023-05-14T03:21:59.740Z,97.9413
2023-05-14T03:23:00.364Z,98.2215
2023-05-14T03:24:00.700Z,98.3818
2023-05-14T03:25:03.584Z,98.3149
2023-05-14T03:26:04.660Z,98.2719
2023-05-14T03:27:04.699Z,98.2641
2023-05-14T03:28:05.720Z,98.5033
2023-05-14T03:29:07.438Z,98.6913
2023-05-14T03:30:07.502Z,98.8478
2023-05-14T03:31:09.284Z,98.9466
2023-05-14T03:32:11.021Z,98.9164
2023-05-14T03:33:12.795Z,99.0275
2023-05-14T03:34:14.457Z,99.1979
2023-05-14T03:35:16.249Z,99.3517
2023-05-14T03:36:16.584Z,99.4260
2023-05-14T03:37:18.575Z,99.4952
2023-05-14T03:38:18.830Z,99.6087
2023-05-14T03:39:21.477Z,99.7686
2023-05-14T03:40:22.886Z,99.8331
2023-05-14T03:41:23.387Z,99.8774
2023-05-14T03:42:24.527Z,99.8964
2023-05-14T03:43:25.649Z,99.9041
2023-05-14T03:59:41.953Z,100.0000
2023-05-14T04:00:42.292Z,100.0000
2023-05-14T04:01:43.604Z,100.0000
2023-05-14T04:02:45.037Z,100.0000
2023-05-14T04:10:52.392Z,99.4619
2023-05-14T04:11:52.543Z,99.3924
2023-05-14T04:12:53.772Z,99.3329
2023-05-14T04:14:56.524Z,99.3510
2023-05-14T04:15:56.472Z,99.3186
2023-05-14T05:07:49.554Z,93.6760
2023-05-14T05:08:49.623Z,92.6062
2023-05-14T05:09:50.272Z,92.3518
2023-05-14T05:10:50.401Z,92.3037
2023-05-14T05:11:51.798Z,93.0188
2023-05-14T05:13:54.610Z,91.3522
2023-05-14T05:14:55.853Z,92.0978
2023-05-14T05:32:18.050Z,90.8098
2023-05-14T05:33:19.152Z,89.6149
2023-05-14T05:34:20.981Z,90.1050
2023-05-14T05:35:23.326Z,89.6631
2023-05-14T05:36:23.718Z,90.0091
2023-05-14T05:37:23.766Z,89.8857
2023-05-14T05:38:25.465Z,90.0916
2023-05-14T05:39:26.677Z,89.9076
2023-05-14T05:40:27.760Z,89.8456
2023-05-14T05:41:28.303Z,90.1610
2023-05-14T05:42:30.956Z,90.0926
2023-05-14T05:43:32.036Z,89.5190
2023-05-14T05:44:33.765Z,89.5201
2023-05-14T05:46:36.083Z,90.2316
2023-05-14T05:47:38.159Z,90.2245
2023-05-14T05:48:40.307Z,89.1795
2023-05-14T05:50:41.469Z,88.3372
2023-05-14T05:51:41.587Z,89.2227
2023-05-14T05:52:41.950Z,88.6289
2023-05-14T05:53:44.186Z,88.5177
2023-05-14T05:54:45.267Z,88.7951
2023-05-14T05:55:46.714Z,88.3377
2023-05-14T05:56:47.860Z,87.6927
2023-05-14T05:57:49.430Z,86.9554
2023-05-14T05:58:50.059Z,86.0971
2023-05-14T05:59:50.345Z,87.1434
2023-05-14T06:00:51.938Z,88.0865
2023-05-14T06:01:53.173Z,87.9329
2023-05-14T06:02:54.255Z,88.7662
2023-05-14T06:03:55.491Z,89.7822
2023-05-14T06:04:58.376Z,88.7142
2023-05-14T06:05:58.505Z,89.6224
2023-05-14T06:08:01.373Z,89.4149
2023-05-14T06:16:54.602Z,91.7767
2023-05-14T06:17:55.579Z,91.9741
2023-05-14T06:18:56.237Z,92.6174
2023-05-14T06:19:57.967Z,92.2626
2023-05-14T06:20:59.005Z,91.9066
2023-05-14T06:21:59.317Z,91.5989
2023-05-14T06:23:02.155Z,91.9058
2023-05-14T06:24:02.461Z,91.5583
2023-05-14T06:25:02.861Z,91.7515
2023-05-14T06:26:03.528Z,92.3090
2023-05-14T06:27:05.515Z,91.5626
2023-05-14T06:28:06.981Z,91.9208
2023-05-14T06:29:08.904Z,92.1267
2023-05-14T06:30:09.639Z,92.3485
2023-05-14T06:31:10.642Z,92.6564
2023-05-14T06:32:11.493Z,92.2917
2023-05-14T06:33:13.486Z,92.3162
2023-05-14T06:35:16.920Z,91.9736
2023-05-14T06:36:17.753Z,91.4862
2023-05-14T06:37:18.184Z,91.2748
2023-05-14T06:38:19.407Z,91.3091
2023-05-14T06:39:21.031Z,91.0092
2023-05-14T06:40:22.929Z,91.0541
2023-05-14T06:50:05.380Z,92.0272
2023-05-14T06:59:43.643Z,92.8941
2023-05-14T07:01:46.804Z,91.8401
2023-05-14T07:12:28.756Z,93.6129
2023-05-14T07:13:30.492Z,93.5778
2023-05-14T07:14:30.817Z,93.9317
2023-05-14T07:15:32.322Z,94.2868
2023-05-14T07:16:33.813Z,94.9091
2023-05-14T07:26:42.169Z,93.5604
2023-05-14T07:27:42.917Z,92.6338
2023-05-14T07:28:44.672Z,93.1627
2023-05-14T07:29:44.726Z,91.6915
2023-05-14T07:30:46.218Z,91.2842
2023-05-14T07:31:47.057Z,91.3909
2023-05-14T07:33:50.733Z,90.5939
2023-05-14T07:55:02.115Z,77.2599
2023-05-14T12:18:27.238Z,81.3474
2023-05-14T12:44:12.639Z,91.7428
2023-05-14T12:46:13.784Z,92.0387
2023-05-14T12:47:14.369Z,91.5922
2023-05-14T12:48:15.209Z,91.0027
2023-05-14T13:30:26.660Z,82.1610
2023-05-14T13:36:31.007Z,82.7419
2023-05-14T13:37:31.235Z,83.2377
2023-05-14T14:05:38.448Z,70.2019
2023-05-14T15:13:30.137Z,91.6426
2023-05-14T15:14:31.077Z,91.7695
2023-05-14T15:15:31.182Z,92.2477
2023-05-14T15:16:32.858Z,92.3301
2023-05-14T15:17:32.919Z,93.2053
2023-05-14T15:28:20.699Z,96.3448
2023-05-14T15:29:20.844Z,97.2459
2023-05-14T15:30:21.997Z,97.0604
2023-05-14T15:31:24.180Z,97.3016
2023-05-14T15:54:17.077Z,95.9485
2023-05-14T15:55:18.854Z,95.3965
2023-05-14T15:56:18.667Z,96.2901
2023-05-14T15:57:20.494Z,95.4268
2023-05-14T15:59:29.521Z,94.4619
2023-05-14T16:01:29.393Z,94.3584
2023-05-14T16:23:19.932Z,98.0987
2023-05-14T16:48:05.611Z,99.7803
2023-05-14T17:01:16.361Z,98.9524
2023-05-14T17:02:18.483Z,99.1294
2023-05-14T17:03:20.689Z,99.2213
2023-05-14T17:04:21.819Z,99.3303
2023-05-14T17:05:23.236Z,99.5895
2023-05-14T17:13:32.072Z,100.0000
2023-05-14T17:14:33.837Z,100.0000
2023-05-14T17:15:35.443Z,100.0000
2023-05-14T17:17:37.512Z,100.0000
2023-05-14T17:18:37.789Z,100.0000
2023-05-14T17:19:39.524Z,100.0000
2023-05-14T17:20:40.190Z,100.0000
2023-05-14T17:21:42.239Z,99.8634
2023-05-14T17:22:43.991Z,99.9240
2023-05-14T17:23:45.910Z,99.9978
2023-05-14T17:24:47.775Z,99.9977
2023-05-14T17:26:51.351Z,99.9935
2023-05-14T17:27:51.515Z,99.9604
2023-05-14T17:29:54.187Z,99.9998
2023-05-14T17:30:54.671Z,100.0000
2023-05-14T17:32:57.715Z,100.0000
2023-05-14T17:33:58.266Z,100.0000
2023-05-14T17:34:59.243Z,100.0000
2023-05-14T17:35:59.887Z,99.9784
2023-05-14T17:37:00.377Z,99.9975
2023-05-14T17:38:02.015Z,100.0000
2023-05-14T17:39:02.254Z,99.9935
2023-05-14T17:40:02.687Z,99.9415
2023-05-14T17:41:02.484Z,99.9786
2023-05-14T17:42:03.736Z,99.3455
2023-05-14T17:43:04.188Z,98.8089
2023-05-14T17:45:06.575Z,98.2040
2023-05-14T17:46:07.855Z,98.3320
2023-05-14T17:47:09.483Z,98.1361
2023-05-14T17:48:10.727Z,98.4382
2023-05-14T17:49:10.983Z,98.2077
2023-05-14T17:51:12.315Z,98.7769
2023-05-14T18:10:34.007Z,99.8544
2023-05-14T18:11:35.253Z,99.8962
2023-05-14T18:12:38.178Z,99.8730
2023-05-14T18:14:40.641Z,99.9617
2023-05-14T18:15:42.341Z,100.0000
2023-05-14T18:16:43.513Z,99.6279
2023-05-14T18:18:44.839Z,99.8144
2023-05-14T18:19:45.081Z,99.8055
2023-05-14T18:20:46.982Z,99.8506
2023-05-14T18:21:48.687Z,99.7754
2023-05-14T18:22:49.823Z,99.7833
2023-05-14T18:23:51.730Z,99.6910
2023-05-14T18:25:53.332Z,99.5714
2023-05-14T18:26:53.622Z,99.5326
2023-05-14T18:27:56.323Z,99.7579
2023-05-14T18:28:57.495Z,99.8809
2023-05-14T18:41:11.967Z,100.0000
2023-05-14T18:45:19.562Z,100.0000
2023-05-14T18:46:20.942Z,100.0000
2023-05-14T18:47:21.001Z,100.0000
2023-05-14T18:48:22.910Z,100.0000
2023-05-14T18:49:24.286Z,100.0000
2023-05-14T19:08:47.321Z,100.0000
2023-05-14T19:09:48.063Z,100.0000
2023-05-14T19:25:08.705Z,100.0000
2023-05-14T19:26:08.243Z,100.0000
2023-05-14T19:31:16.905Z,100.0000
2023-05-14T19:32:18.134Z,100.0000
2023-05-14T20:02:50.927Z,100.0000
2023-05-14T20:06:57.431Z,100.0000
2023-05-14T20:07:57.982Z,100.0000
2023-05-14T20:10:00.040Z,100.0000
2023-05-14T20:11:01.196Z,100.0000
2023-05-14T20:12:02.989Z,100.0000
2023-05-14T20:14:07.535Z,100.0000
2023-05-14T20:15:08.915Z,100.0000
2023-05-14T20:16:09.426Z,100.0000
2023-05-14T20:17:10.211Z,100.0000
2023-05-14T20:18:10.537Z,100.0000
2023-05-14T20:20:14.259Z,100.0000
2023-05-14T20:21:14.249Z,100.0000
2023-05-14T20:22:15.290Z,100.0000
2023-05-14T20:23:17.716Z,100.0000
2023-05-14T20:27:22.315Z,100.0000
2023-05-14T20:37:32.342Z,100.0000
2023-05-14T20:38:33.675Z,100.0000
2023-05-14T20:39:34.861Z,100.0000
2023-05-14T20:40:36.109Z,100.0000
2023-05-14T20:41:36.600Z,100.0000
2023-05-14T20:42:38.161Z,100.0000
2023-05-14T20:49:55.378Z,100.0000
2023-05-14T20:58:03.464Z,100.0000
2023-05-14T20:59:04.107Z,100.0000
2023-05-14T21:00:04.207Z,100.0000
2023-05-14T21:01:07.396Z,100.0000
2023-05-14T21:12:16.711Z,100.0000
2023-05-14T21:13:17.172Z,100.0000
2023-05-14T21:14:18.891Z,100.0000
2023-05-14T21:15:21.083Z,100.0000
2023-05-14T21:16:24.296Z,100.0000
2023-05-14T21:18:25.537Z,100.0000
2023-05-14T21:19:25.850Z,100.0000
2023-05-14T21:20:28.558Z,100.0000
2023-05-14T21:22:29.976Z,100.0000
2023-05-14T21:23:30.466Z,100.0000
2023-05-14T21:24:31.436Z,100.0000
2023-05-14T21:26:34.284Z,100.0000
2023-05-14T21:31:42.250Z,99.8890
2023-05-14T21:32:45.010Z,99.9316
2023-05-14T21:33:45.243Z,99.7534
2023-05-14T21:34:45.517Z,99.7626
2023-05-14T21:35:48.642Z,99.8041
2023-05-14T21:40:52.748Z,99.8682
2023-05-14T22:00:09.733Z,100.0000
2023-05-14T22:01:11.421Z,100.0000
2023-05-14T22:02:12.521Z,99.9542
2023-05-14T22:03:13.352Z,99.0613
2023-05-14T22:04:14.367Z,98.2309
2023-05-14T22:05:13.763Z,98.9087
2023-05-14T22:09:20.217Z,100.0000
2023-05-14T22:10:21.917Z,100.0000
2023-05-14T22:11:22.256Z,100.0000
2023-05-14T22:12:22.288Z,100.0000
2023-05-14T22:13:24.338Z,100.0000
2023-05-14T22:14:25.037Z,100.0000
2023-05-14T22:24:36.415Z,100.0000
2023-05-14T22:25:37.512Z,100.0000
2023-05-14T22:26:38.362Z,100.0000
2023-05-14T22:27:40.560Z,100.0000
2023-05-14T22:28:41.252Z,100.0000
2023-05-14T22:29:42.008Z,100.0000
2023-05-14T22:30:43.175Z,100.0000
2023-05-14T22:31:45.062Z,100.0000
2023-05-14T22:32:47.053Z,100.0000
2023-05-14T22:33:50.137Z,100.0000
2023-05-14T22:35:49.694Z,100.0000
2023-05-14T22:36:50.283Z,100.0000
2023-05-14T22:38:52.794Z,100.0000
2023-05-14T22:39:52.554Z,100.0000
2023-05-14T22:42:58.675Z,99.9936
2023-05-14T22:53:14.015Z,99.9489
2023-05-14T22:54:18.403Z,99.7115
2023-05-14T23:05:28.137Z,97.6588
2023-05-14T23:09:33.339Z,98.4163
2023-05-14T23:10:34.190Z,98.6545
2023-05-14T23:11:36.325Z,99.0196
2023-05-14T23:12:38.390Z,99.2355
2023-05-14T23:13:41.092Z,99.3921
2023-05-14T23:14:42.585Z,99.5256
2023-05-14T23:15:44.701Z,99.4907
2023-05-14T23:16:44.891Z,99.5225
2023-05-14T23:17:45.906Z,99.6363
2023-05-14T23:18:46.241Z,99.6515
2023-05-14T23:19:47.345Z,99.7337
2023-05-14T23:20:48.349Z,99.6861
2023-05-14T23:21:49.620Z,99.5539
2023-05-14T23:22:51.062Z,99.5348
2023-05-14T23:24:52.694Z,99.5165
2023-05-14T23:53:12.834Z,100.0000
2023-05-14T23:54:14.905Z,100.0000
2023-05-14T23:55:16.109Z,100.0000
2023-05-14T23:56:18.318Z,100.0000
2023-05-14T23:57:18.602Z,100.0000
2023-05-14T23:58:18.633Z,100.0000
2023-05-14T23:59:19.346Z,100.0000
